Terminal Aerodrome Forecast
Issued by NWS

Home | Current Version | Previous Version | Text Only | Print | Product List | Glossary On
Versions: 1 2 3 4 5 6 7 8 9 10 11 12 13 14 15 16 17 18 19 20 21 22 23 24 25 26 27 28 29 30 31 32 33 34 35 36 37 38 39 40 41 42 43 44 45 46 47 48
000
FTUS46 KOTX 260355 AAB
TAFPUW
TAF AMD
KPUW 260355Z 2604/2624 25012G20KT 2SM -SHSN BKN018 OVC035
     FM260600 25012KT P6SM VCSH SCT015 OVC030
     FM261000 24012KT P6SM SCT010 OVC120
     FM261300 24008KT P6SM BKN060
     FM261800 25010KT P6SM SCT250=

USA.gov is the U.S. government's official web portal to all federal, state and local government web resources and services.